Time;durP1;ratioP1;P1;durP2;ratioP2;P2;SDS_P1;SDS_P2;PMS_P1;PMS_P2;Temp;Humidity;BMP_temperature;BMP_pressure;BME280_temperature;BME280_humidity;BME280_pressure;Samples;Min_cycle;Max_cycle;Signal;HPM_P1;HPM_P2
2022/03/21 00:04:18;;;;;;;68.30;28.50;;;;;;;-0.52;39.60;100953.55;432381;1271;99263;-41
2022/03/21 00:14:25;;;;;;;69.50;29.70;;;;;;;-0.56;39.69;100953.27;432499;1271;112482;-40
2022/03/21 00:24:32;;;;;;;81.70;35.00;;;;;;;-0.76;39.86;100951.64;432534;1271;108788;-41
2022/03/21 00:34:38;;;;;;;81.20;33.00;;;;;;;-1.00;40.49;100954.95;432333;1271;99942;-42
2022/03/21 00:44:45;;;;;;;71.10;30.80;;;;;;;-1.25;40.74;100951.15;432479;1271;107242;-41
2022/03/21 00:54:52;;;;;;;78.80;31.00;;;;;;;-1.41;41.26;100946.83;432519;1271;99353;-44
2022/03/21 01:04:59;;;;;;;79.60;32.40;;;;;;;-1.57;41.39;100940.27;432673;1271;112499;-41
2022/03/21 01:15:07;;;;;;;69.60;31.50;;;;;;;-1.68;41.99;100933.85;432353;1271;109011;-42
2022/03/21 01:25:14;;;;;;;86.90;33.10;;;;;;;-1.77;42.28;100922.61;432339;1273;99355;-43
2022/03/21 01:45:28;;;;;;;92.50;36.80;;;;;;;-2.08;42.92;100928.48;432401;1273;99296;-42
2022/03/21 01:55:48;;;;;;;96.40;37.00;;;;;;;-2.25;43.45;100923.50;432416;1271;111481;-40
2022/03/21 02:05:55;;;;;;;98.40;38.70;;;;;;;-2.43;44.10;100921.94;432497;1273;108833;-41
2022/03/21 02:16:01;;;;;;;96.90;40.70;;;;;;;-2.65;44.72;100912.52;432468;1271;99250;-40
2022/03/21 02:26:07;;;;;;;105.30;40.40;;;;;;;-2.79;44.96;100912.02;432385;1271;108936;-41
2022/03/21 02:36:15;;;;;;;92.50;36.60;;;;;;;-2.84;44.95;100912.80;433287;1260;99279;-40
2022/03/21 02:46:24;;;;;;;96.90;39.30;;;;;;;-2.82;45.24;100915.09;432445;1270;112378;-40
2022/03/21 02:56:31;;;;;;;100.00;42.00;;;;;;;-2.89;45.78;100914.27;432467;1271;108898;-41
2022/03/21 03:16:46;;;;;;;100.30;38.80;;;;;;;-3.04;46.53;100910.35;432489;1270;107841;-41
2022/03/21 03:26:53;;;;;;;72.20;31.10;;;;;;;-3.18;47.04;100914.77;432804;1270;99307;-41
2022/03/21 03:37:01;;;;;;;79.80;33.40;;;;;;;-3.17;47.16;100918.48;432514;1270;112606;-42
2022/03/21 03:47:09;;;;;;;67.50;31.60;;;;;;;-3.20;47.32;100921.76;432448;1270;108762;-43
2022/03/21 03:57:16;;;;;;;73.90;31.10;;;;;;;-3.13;47.80;100923.62;432627;1270;99260;-42
2022/03/21 04:07:24;;;;;;;73.40;32.90;;;;;;;-2.99;47.92;100927.13;432487;1270;108690;-41
2022/03/21 04:17:32;;;;;;;82.10;36.60;;;;;;;-3.01;47.84;100930.20;432346;1270;99565;-42
2022/03/21 04:27:39;;;;;;;66.80;28.20;;;;;;;-3.08;47.96;100932.30;432548;1270;111396;-40
2022/03/21 04:37:46;;;;;;;65.60;29.10;;;;;;;-3.06;48.18;100930.43;432624;1269;109620;-42
2022/03/21 04:47:54;;;;;;;68.70;29.30;;;;;;;-2.93;48.21;100937.33;432565;1270;99356;-41
2022/03/21 04:58:01;;;;;;;71.40;28.90;;;;;;;-2.93;48.26;100938.52;432497;1270;109206;-43
2022/03/21 05:08:08;;;;;;;66.70;31.00;;;;;;;-2.98;48.29;100942.61;432392;1270;99247;-40
2022/03/21 05:38:47;;;;;;;88.50;37.50;;;;;;;-1.36;48.88;100957.55;432410;1270;99343;-41
2022/03/21 05:49:01;;;;;;;165.90;42.00;;;;;;;-0.02;48.21;100958.45;432477;1270;108933;-40
2022/03/21 06:09:33;;;;;;;76.40;35.40;;;;;;;3.08;46.96;100962.08;432680;1269;112257;-41
2022/03/21 06:19:40;;;;;;;80.90;34.80;;;;;;;4.17;45.88;100963.30;432407;1270;109053;-41
2022/03/21 06:29:48;;;;;;;77.70;37.90;;;;;;;5.36;44.75;100963.20;432665;1270;98020;-44
2022/03/21 06:39:55;;;;;;;65.40;32.70;;;;;;;6.51;43.63;100965.08;432576;1269;113212;-40
2022/03/21 07:00:13;;;;;;;50.20;25.40;;;;;;;7.89;40.04;100956.77;432638;1270;99276;-43
2022/03/21 07:10:21;;;;;;;50.50;26.70;;;;;;;8.64;39.13;100960.80;432665;1269;112536;-41
2022/03/21 07:20:28;;;;;;;46.60;26.40;;;;;;;8.97;37.52;100958.75;432406;1269;108831;-41
2022/03/21 07:30:36;;;;;;;43.40;22.60;;;;;;;8.84;36.89;100965.02;432756;1270;99285;-41
2022/03/21 07:40:44;;;;;;;47.80;24.20;;;;;;;9.12;35.88;100965.23;432477;1269;113225;-40
2022/03/21 07:50:52;;;;;;;39.20;20.80;;;;;;;8.97;35.15;100973.56;432438;1270;109044;-40
2022/03/21 08:11:06;;;;;;;28.90;17.20;;;;;;;9.37;33.40;100962.88;432658;1270;112902;-41
2022/03/21 08:21:13;;;;;;;22.90;14.00;;;;;;;9.72;31.70;100957.99;432558;1270;108772;-41
2022/03/21 08:31:20;;;;;;;21.00;12.80;;;;;;;9.89;31.34;100953.33;432552;1270;99272;-41
2022/03/21 08:41:28;;;;;;;25.10;12.50;;;;;;;10.19;31.11;100946.20;432418;1270;108662;-41
2022/03/21 08:51:37;;;;;;;22.30;12.90;;;;;;;10.38;30.88;100937.54;432860;1270;99283;-42
2022/03/21 09:01:43;;;;;;;21.90;12.80;;;;;;;10.73;30.51;100933.54;432615;1270;112746;-41
2022/03/21 09:21:59;;;;;;;20.10;11.40;;;;;;;10.96;29.44;100919.77;432592;1270;99300;-40
2022/03/21 09:32:06;;;;;;;19.00;11.80;;;;;;;11.16;29.15;100915.59;432615;1269;108207;-41
2022/03/21 09:52:21;;;;;;;13.70;9.80;;;;;;;11.60;28.34;100898.99;432497;1269;112449;-43
2022/03/21 10:02:29;;;;;;;16.30;9.70;;;;;;;11.46;27.92;100897.50;432326;1269;108194;-44
2022/03/21 10:12:35;;;;;;;17.20;10.10;;;;;;;11.81;27.65;100894.84;432373;1270;99251;-41
2022/03/21 10:32:56;;;;;;;23.20;15.50;;;;;;;11.83;27.62;100878.48;432455;1269;99269;-40
2022/03/21 10:43:05;;;;;;;23.20;13.40;;;;;;;11.77;27.55;100872.13;432530;1270;112161;-40
2022/03/21 10:53:11;;;;;;;26.60;13.30;;;;;;;11.70;27.51;100866.76;432563;1269;108648;-42
2022/03/21 11:03:17;;;;;;;25.50;14.70;;;;;;;12.00;27.29;100863.16;432614;1269;99252;-41
2022/03/21 11:13:27;;;;;;;19.70;11.70;;;;;;;12.18;27.60;100852.16;432472;1270;108738;-40
2022/03/21 11:23:34;;;;;;;15.00;9.80;;;;;;;12.46;26.89;100845.29;432576;1269;98076;-39
2022/03/21 11:33:43;;;;;;;19.50;11.90;;;;;;;12.61;26.75;100840.52;432375;1270;112386;-41
2022/03/21 11:44:08;;;;;;;18.80;10.70;;;;;;;12.58;26.93;100827.66;432302;1270;108817;-44
2022/03/21 11:54:34;;;;;;;21.40;12.10;;;;;;;12.63;26.59;100813.09;432574;1270;99282;-42
2022/03/21 12:04:42;;;;;;;21.20;12.30;;;;;;;12.73;26.37;100798.86;432425;1270;108842;-41
2022/03/21 12:14:54;;;;;;;20.90;12.60;;;;;;;12.55;26.54;100780.89;432604;1270;99260;-45
2022/03/21 12:25:05;;;;;;;17.40;11.70;;;;;;;12.80;26.83;100772.66;432305;1270;112577;-42
2022/03/21 12:35:48;;;;;;;16.60;10.50;;;;;;;12.96;26.59;100758.44;432535;1270;107575;-43
2022/03/21 12:56:04;;;;;;;13.50;8.90;;;;;;;12.98;25.92;100746.12;433103;1270;108905;-40
2022/03/21 13:16:45;;;;;;;10.00;7.80;;;;;;;12.93;25.75;100735.66;433053;1270;112336;-40
2022/03/21 13:26:59;;;;;;;13.50;7.70;;;;;;;12.85;25.52;100725.65;433115;1270;106926;-42
2022/03/21 13:37:09;;;;;;;10.40;6.60;;;;;;;13.03;24.98;100716.17;432867;1270;98039;-41
2022/03/21 13:47:19;;;;;;;13.60;7.10;;;;;;;13.00;24.24;100704.69;432644;1270;108820;-41
2022/03/21 13:57:27;;;;;;;9.80;6.70;;;;;;;13.02;24.43;100701.98;432632;1269;99275;-40
2022/03/21 14:07:34;;;;;;;15.20;8.80;;;;;;;12.97;23.93;100701.90;432727;1270;111667;-41
2022/03/21 14:17:42;;;;;;;18.30;8.20;;;;;;;12.90;23.89;100699.20;432313;1270;108981;-41
2022/03/21 14:27:49;;;;;;;14.20;7.80;;;;;;;12.90;24.18;100687.52;432615;1270;98069;-42
2022/03/21 14:37:56;;;;;;;14.70;8.60;;;;;;;12.85;24.02;100681.62;432536;1269;108790;-40
2022/03/21 14:48:04;;;;;;;14.30;8.90;;;;;;;12.81;24.35;100667.58;432521;1270;99286;-44
2022/03/21 14:58:12;;;;;;;13.80;8.20;;;;;;;12.75;24.47;100662.55;432629;1269;111423;-43
2022/03/21 15:08:20;;;;;;;19.80;8.80;;;;;;;12.67;24.11;100654.52;432639;1269;108761;-40
2022/03/21 15:18:26;;;;;;;13.20;7.40;;;;;;;12.60;24.52;100649.71;432458;1270;99339;-41
2022/03/21 15:49:05;;;;;;;16.00;7.50;;;;;;;12.06;23.48;100640.94;432467;1269;112495;-46
2022/03/21 15:59:13;;;;;;;13.50;7.50;;;;;;;11.88;23.77;100638.13;432532;1270;109323;-41
2022/03/21 16:09:20;;;;;;;12.30;7.70;;;;;;;11.68;24.00;100634.30;432574;1270;99973;-40
2022/03/21 16:19:27;;;;;;;16.20;8.50;;;;;;;11.44;24.56;100636.95;432584;1270;107901;-41
2022/03/21 16:29:35;;;;;;;18.80;10.10;;;;;;;11.17;25.10;100640.24;432466;1270;99372;-45
2022/03/21 16:39:42;;;;;;;49.00;20.20;;;;;;;10.88;25.68;100645.48;432410;1270;112398;-42
2022/03/21 16:49:50;;;;;;;44.70;17.60;;;;;;;10.52;26.14;100645.32;432547;1270;107166;-41
2022/03/21 16:59:58;;;;;;;50.50;23.60;;;;;;;10.12;26.35;100640.95;432708;1270;99270;-41
2022/03/21 17:10:04;;;;;;;43.30;21.30;;;;;;;9.67;26.97;100646.80;432572;1270;108803;-43
2022/03/21 17:30:39;;;;;;;138.00;30.80;;;;;;;8.49;28.11;100646.86;432586;1269;112394;-40
2022/03/21 17:40:46;;;;;;;48.70;26.10;;;;;;;7.98;28.73;100656.23;432584;1269;109012;-41
2022/03/21 17:50:56;;;;;;;56.00;27.50;;;;;;;7.42;29.28;100655.52;432654;1270;99289;-41
2022/03/21 18:01:05;;;;;;;58.80;27.80;;;;;;;6.88;29.86;100649.08;432658;1269;112153;-41
2022/03/21 18:11:12;;;;;;;68.40;30.70;;;;;;;6.41;30.65;100653.96;432690;1269;108794;-40
2022/03/21 18:31:26;;;;;;;121.50;47.80;;;;;;;5.63;31.89;100666.85;432726;1270;109391;-40
2022/03/21 18:41:34;;;;;;;151.80;64.90;;;;;;;5.22;32.31;100665.73;432857;1270;99261;-41
2022/03/21 18:51:41;;;;;;;149.60;65.80;;;;;;;4.86;33.06;100674.37;432712;1270;112269;-41
2022/03/21 19:01:49;;;;;;;160.00;68.40;;;;;;;4.60;33.51;100679.67;432659;1269;108995;-43
2022/03/21 19:11:57;;;;;;;187.20;76.90;;;;;;;4.35;34.08;100691.59;432681;1270;98073;-40
2022/03/21 19:22:24;;;;;;;194.40;79.20;;;;;;;4.12;34.80;100698.58;432870;1270;112639;-41
2022/03/21 19:32:43;;;;;;;147.20;66.00;;;;;;;3.90;34.93;100706.55;432552;1269;108949;-41
2022/03/21 19:42:52;;;;;;;166.30;73.00;;;;;;;3.65;35.21;100713.02;432917;1270;99295;-41
2022/03/21 19:52:59;;;;;;;159.60;69.80;;;;;;;3.52;35.84;100716.81;432578;1269;111958;-41
2022/03/21 20:03:07;;;;;;;178.40;76.00;;;;;;;3.36;36.25;100720.15;432482;1270;108232;-40
2022/03/21 20:13:23;;;;;;;215.30;81.90;;;;;;;3.18;36.75;100728.98;432653;1270;99405;-41
2022/03/21 20:23:30;;;;;;;204.20;80.80;;;;;;;3.00;37.28;100724.55;432527;1269;112417;-43
2022/03/21 20:33:37;;;;;;;209.60;83.30;;;;;;;2.85;37.57;100723.23;432565;1270;108808;-41
2022/03/21 20:43:45;;;;;;;211.90;84.80;;;;;;;2.64;38.01;100724.48;432937;1270;99273;-42
2022/03/21 20:53:52;;;;;;;212.70;84.10;;;;;;;2.42;38.25;100724.76;432656;1270;112410;-44
2022/03/21 21:03:59;;;;;;;228.60;85.40;;;;;;;2.20;38.61;100725.91;432283;1269;637260;-41
2022/03/21 21:14:06;;;;;;;199.50;75.80;;;;;;;2.03;39.09;100726.56;432645;1270;98868;-41
2022/03/21 21:24:13;;;;;;;124.20;53.30;;;;;;;1.97;39.27;100723.76;432544;1270;99247;-42
2022/03/21 21:34:20;;;;;;;109.60;47.70;;;;;;;2.01;39.59;100715.92;432755;1270;112132;-41
2022/03/21 21:44:27;;;;;;;123.70;50.90;;;;;;;2.10;39.72;100709.83;432772;1270;109641;-41
2022/03/21 21:54:35;;;;;;;140.80;59.10;;;;;;;2.18;39.74;100713.75;432622;1270;99269;-43
2022/03/21 22:04:43;;;;;;;130.90;54.70;;;;;;;2.18;40.00;100707.63;432745;1270;111410;-41
2022/03/21 22:14:51;;;;;;;134.30;57.20;;;;;;;2.03;40.25;100701.86;432493;1271;108712;-43
2022/03/21 22:24:59;;;;;;;119.20;49.70;;;;;;;1.83;40.33;100700.50;432473;1270;98011;-40
2022/03/21 22:35:06;;;;;;;106.10;44.20;;;;;;;1.67;40.54;100700.38;432439;1271;112483;-41
2022/03/21 22:55:39;;;;;;;83.00;38.30;;;;;;;1.44;41.29;100697.54;432511;1271;99257;-41
2022/03/21 23:05:45;;;;;;;93.90;41.10;;;;;;;1.36;41.57;100704.75;432482;1271;112795;-42
2022/03/21 23:15:52;;;;;;;128.90;52.80;;;;;;;1.37;41.82;100699.70;432767;1269;109013;-41
2022/03/21 23:26:00;;;;;;;171.90;67.00;;;;;;;1.25;42.26;100699.70;432532;1270;99244;-41
2022/03/21 23:36:08;;;;;;;196.00;77.30;;;;;;;1.18;42.44;100703.69;432439;1270;111574;-40
2022/03/21 23:46:35;;;;;;;191.40;77.10;;;;;;;1.16;42.40;100694.48;432469;1270;107815;-41
2022/03/21 23:56:47;;;;;;;158.70;67.50;;;;;;;1.12;42.76;100692.74;432379;1270;99260;-41
